sensor_id;sensor_type;location;lat;lon;timestamp;P1;durP1;ratioP1;P2;durP2;ratioP2
5965;SDS011;3009;43.224;27.976;2023-12-20T00:01:29;43.70;;;26.67;;
5965;SDS011;3009;43.224;27.976;2023-12-20T00:03:58;46.20;;;28.33;;
5965;SDS011;3009;43.224;27.976;2023-12-20T00:06:26;40.50;;;25.67;;
5965;SDS011;3009;43.224;27.976;2023-12-20T00:08:55;47.97;;;26.87;;
5965;SDS011;3009;43.224;27.976;2023-12-20T00:11:24;36.33;;;23.73;;
5965;SDS011;3009;43.224;27.976;2023-12-20T00:13:52;35.33;;;23.17;;
5965;SDS011;3009;43.224;27.976;2023-12-20T00:16:21;31.20;;;20.90;;
5965;SDS011;3009;43.224;27.976;2023-12-20T00:18:50;33.10;;;22.77;;
5965;SDS011;3009;43.224;27.976;2023-12-20T00:21:20;30.77;;;21.97;;
5965;SDS011;3009;43.224;27.976;2023-12-20T00:23:49;30.00;;;22.60;;
5965;SDS011;3009;43.224;27.976;2023-12-20T00:26:17;32.93;;;23.87;;
5965;SDS011;3009;43.224;27.976;2023-12-20T00:28:46;29.73;;;21.50;;
5965;SDS011;3009;43.224;27.976;2023-12-20T00:31:14;35.40;;;22.97;;
5965;SDS011;3009;43.224;27.976;2023-12-20T00:33:43;30.10;;;20.40;;
5965;SDS011;3009;43.224;27.976;2023-12-20T00:36:14;28.40;;;19.20;;
5965;SDS011;3009;43.224;27.976;2023-12-20T00:38:42;27.80;;;19.77;;
5965;SDS011;3009;43.224;27.976;2023-12-20T00:41:11;32.00;;;21.00;;
5965;SDS011;3009;43.224;27.976;2023-12-20T00:43:39;45.67;;;26.80;;
5965;SDS011;3009;43.224;27.976;2023-12-20T00:46:08;38.03;;;21.90;;
5965;SDS011;3009;43.224;27.976;2023-12-20T00:48:36;30.93;;;20.27;;
5965;SDS011;3009;43.224;27.976;2023-12-20T00:51:05;32.27;;;21.53;;
5965;SDS011;3009;43.224;27.976;2023-12-20T00:53:36;44.33;;;25.80;;
5965;SDS011;3009;43.224;27.976;2023-12-20T00:56:04;77.27;;;33.30;;
5965;SDS011;3009;43.224;27.976;2023-12-20T00:58:32;62.60;;;30.53;;
5965;SDS011;3009;43.224;27.976;2023-12-20T01:01:01;45.50;;;25.63;;
5965;SDS011;3009;43.224;27.976;2023-12-20T01:03:29;45.80;;;25.40;;
5965;SDS011;3009;43.224;27.976;2023-12-20T01:05:58;66.43;;;34.10;;
5965;SDS011;3009;43.224;27.976;2023-12-20T01:08:26;54.17;;;29.43;;
5965;SDS011;3009;43.224;27.976;2023-12-20T01:10:56;37.13;;;21.20;;
5965;SDS011;3009;43.224;27.976;2023-12-20T01:13:25;21.97;;;16.60;;
5965;SDS011;3009;43.224;27.976;2023-12-20T01:15:52;20.70;;;15.43;;
5965;SDS011;3009;43.224;27.976;2023-12-20T01:18:20;19.20;;;13.90;;
5965;SDS011;3009;43.224;27.976;2023-12-20T01:20:49;17.50;;;12.87;;
5965;SDS011;3009;43.224;27.976;2023-12-20T01:23:17;20.87;;;14.10;;
5965;SDS011;3009;43.224;27.976;2023-12-20T01:25:45;20.20;;;13.13;;
5965;SDS011;3009;43.224;27.976;2023-12-20T01:28:15;16.93;;;12.27;;
5965;SDS011;3009;43.224;27.976;2023-12-20T01:30:44;17.10;;;12.73;;
5965;SDS011;3009;43.224;27.976;2023-12-20T01:33:12;15.00;;;12.27;;
5965;SDS011;3009;43.224;27.976;2023-12-20T01:35:41;20.93;;;13.80;;
5965;SDS011;3009;43.224;27.976;2023-12-20T01:38:09;20.37;;;13.80;;
5965;SDS011;3009;43.224;27.976;2023-12-20T01:40:37;20.50;;;13.37;;
5965;SDS011;3009;43.224;27.976;2023-12-20T01:43:07;17.67;;;13.30;;
5965;SDS011;3009;43.224;27.976;2023-12-20T01:45:37;14.70;;;12.00;;
5965;SDS011;3009;43.224;27.976;2023-12-20T01:48:07;20.90;;;14.37;;
5965;SDS011;3009;43.224;27.976;2023-12-20T01:50:37;14.70;;;11.60;;
5965;SDS011;3009;43.224;27.976;2023-12-20T01:53:06;17.30;;;12.00;;
5965;SDS011;3009;43.224;27.976;2023-12-20T01:55:36;16.43;;;11.80;;
5965;SDS011;3009;43.224;27.976;2023-12-20T01:58:14;27.03;;;13.17;;
5965;SDS011;3009;43.224;27.976;2023-12-20T02:00:44;22.13;;;14.30;;
5965;SDS011;3009;43.224;27.976;2023-12-20T02:03:13;27.23;;;17.20;;
5965;SDS011;3009;43.224;27.976;2023-12-20T02:05:43;22.23;;;14.83;;
5965;SDS011;3009;43.224;27.976;2023-12-20T02:10:52;21.33;;;15.43;;
5965;SDS011;3009;43.224;27.976;2023-12-20T02:13:21;20.80;;;14.97;;
5965;SDS011;3009;43.224;27.976;2023-12-20T02:15:50;22.10;;;15.77;;
5965;SDS011;3009;43.224;27.976;2023-12-20T02:18:18;22.10;;;15.70;;
5965;SDS011;3009;43.224;27.976;2023-12-20T02:20:47;26.77;;;16.83;;
5965;SDS011;3009;43.224;27.976;2023-12-20T02:23:16;21.40;;;13.97;;
5965;SDS011;3009;43.224;27.976;2023-12-20T02:25:45;20.17;;;12.60;;
5965;SDS011;3009;43.224;27.976;2023-12-20T02:28:14;15.77;;;10.90;;
5965;SDS011;3009;43.224;27.976;2023-12-20T02:30:43;11.90;;;9.10;;
5965;SDS011;3009;43.224;27.976;2023-12-20T02:33:11;13.13;;;8.63;;
5965;SDS011;3009;43.224;27.976;2023-12-20T02:35:41;11.73;;;8.40;;
5965;SDS011;3009;43.224;27.976;2023-12-20T02:38:10;10.17;;;8.43;;
5965;SDS011;3009;43.224;27.976;2023-12-20T02:40:40;10.20;;;8.20;;
5965;SDS011;3009;43.224;27.976;2023-12-20T02:43:15;7.93;;;7.10;;
5965;SDS011;3009;43.224;27.976;2023-12-20T02:45:44;7.33;;;6.63;;
5965;SDS011;3009;43.224;27.976;2023-12-20T02:48:12;11.53;;;7.60;;
5965;SDS011;3009;43.224;27.976;2023-12-20T02:50:40;15.10;;;9.60;;
5965;SDS011;3009;43.224;27.976;2023-12-20T02:53:09;22.37;;;13.13;;
5965;SDS011;3009;43.224;27.976;2023-12-20T02:55:37;14.33;;;9.57;;
5965;SDS011;3009;43.224;27.976;2023-12-20T02:58:07;17.53;;;9.50;;
5965;SDS011;3009;43.224;27.976;2023-12-20T03:00:35;11.50;;;8.30;;
5965;SDS011;3009;43.224;27.976;2023-12-20T03:03:04;8.90;;;7.97;;
5965;SDS011;3009;43.224;27.976;2023-12-20T03:05:32;9.60;;;8.30;;
5965;SDS011;3009;43.224;27.976;2023-12-20T03:08:01;9.17;;;7.10;;
5965;SDS011;3009;43.224;27.976;2023-12-20T03:10:29;8.23;;;6.80;;
5965;SDS011;3009;43.224;27.976;2023-12-20T03:12:58;7.47;;;6.77;;
5965;SDS011;3009;43.224;27.976;2023-12-20T03:15:28;6.60;;;6.00;;
5965;SDS011;3009;43.224;27.976;2023-12-20T03:17:56;6.07;;;5.47;;
5965;SDS011;3009;43.224;27.976;2023-12-20T03:20:26;6.90;;;5.90;;
5965;SDS011;3009;43.224;27.976;2023-12-20T03:22:54;7.70;;;5.63;;
5965;SDS011;3009;43.224;27.976;2023-12-20T03:25:22;8.00;;;6.17;;
5965;SDS011;3009;43.224;27.976;2023-12-20T03:27:51;5.97;;;5.47;;
5965;SDS011;3009;43.224;27.976;2023-12-20T03:30:19;7.30;;;6.63;;
5965;SDS011;3009;43.224;27.976;2023-12-20T03:32:49;7.40;;;6.40;;
5965;SDS011;3009;43.224;27.976;2023-12-20T03:35:18;6.53;;;5.93;;
5965;SDS011;3009;43.224;27.976;2023-12-20T03:37:46;6.93;;;6.23;;
5965;SDS011;3009;43.224;27.976;2023-12-20T03:40:15;10.13;;;7.07;;
5965;SDS011;3009;43.224;27.976;2023-12-20T03:42:44;20.00;;;12.57;;
5965;SDS011;3009;43.224;27.976;2023-12-20T03:45:12;24.83;;;15.20;;
5965;SDS011;3009;43.224;27.976;2023-12-20T03:47:41;17.20;;;13.27;;
5965;SDS011;3009;43.224;27.976;2023-12-20T03:50:12;17.27;;;12.37;;
5965;SDS011;3009;43.224;27.976;2023-12-20T03:52:40;21.00;;;12.77;;
5965;SDS011;3009;43.224;27.976;2023-12-20T03:55:08;18.07;;;12.20;;
5965;SDS011;3009;43.224;27.976;2023-12-20T03:57:37;16.23;;;11.43;;
5965;SDS011;3009;43.224;27.976;2023-12-20T04:00:07;13.80;;;11.23;;
5965;SDS011;3009;43.224;27.976;2023-12-20T04:02:37;16.87;;;12.40;;
5965;SDS011;3009;43.224;27.976;2023-12-20T04:05:06;18.40;;;12.80;;
5965;SDS011;3009;43.224;27.976;2023-12-20T04:07:37;16.83;;;12.60;;
5965;SDS011;3009;43.224;27.976;2023-12-20T04:10:07;15.77;;;12.40;;
5965;SDS011;3009;43.224;27.976;2023-12-20T04:12:36;17.07;;;11.90;;
5965;SDS011;3009;43.224;27.976;2023-12-20T04:15:04;16.60;;;12.47;;
5965;SDS011;3009;43.224;27.976;2023-12-20T04:17:36;16.83;;;13.30;;
5965;SDS011;3009;43.224;27.976;2023-12-20T04:20:05;13.80;;;11.23;;
5965;SDS011;3009;43.224;27.976;2023-12-20T04:22:35;14.03;;;11.00;;
5965;SDS011;3009;43.224;27.976;2023-12-20T04:25:05;17.37;;;12.87;;
5965;SDS011;3009;43.224;27.976;2023-12-20T04:27:34;15.60;;;11.57;;
5965;SDS011;3009;43.224;27.976;2023-12-20T04:30:02;11.93;;;10.67;;
5965;SDS011;3009;43.224;27.976;2023-12-20T04:32:31;15.83;;;11.43;;
5965;SDS011;3009;43.224;27.976;2023-12-20T04:35:00;16.87;;;11.70;;
5965;SDS011;3009;43.224;27.976;2023-12-20T04:37:28;13.53;;;10.67;;
5965;SDS011;3009;43.224;27.976;2023-12-20T04:39:58;12.60;;;10.40;;
5965;SDS011;3009;43.224;27.976;2023-12-20T04:42:26;14.50;;;10.90;;
5965;SDS011;3009;43.224;27.976;2023-12-20T04:44:55;15.20;;;10.33;;
5965;SDS011;3009;43.224;27.976;2023-12-20T04:47:23;12.77;;;10.13;;
5965;SDS011;3009;43.224;27.976;2023-12-20T04:49:52;12.20;;;10.77;;
5965;SDS011;3009;43.224;27.976;2023-12-20T04:52:20;13.53;;;10.30;;
5965;SDS011;3009;43.224;27.976;2023-12-20T04:54:49;17.97;;;11.47;;
5965;SDS011;3009;43.224;27.976;2023-12-20T04:57:19;12.30;;;10.20;;
5965;SDS011;3009;43.224;27.976;2023-12-20T04:59:48;13.50;;;11.07;;
5965;SDS011;3009;43.224;27.976;2023-12-20T05:02:16;26.87;;;12.33;;
5965;SDS011;3009;43.224;27.976;2023-12-20T05:04:45;18.37;;;12.30;;
5965;SDS011;3009;43.224;27.976;2023-12-20T05:07:13;22.57;;;13.33;;
5965;SDS011;3009;43.224;27.976;2023-12-20T05:09:41;16.30;;;12.00;;
5965;SDS011;3009;43.224;27.976;2023-12-20T05:12:10;19.30;;;12.83;;
5965;SDS011;3009;43.224;27.976;2023-12-20T05:14:40;18.40;;;13.07;;
5965;SDS011;3009;43.224;27.976;2023-12-20T05:17:08;16.67;;;13.73;;
5965;SDS011;3009;43.224;27.976;2023-12-20T05:19:37;20.90;;;12.90;;
5965;SDS011;3009;43.224;27.976;2023-12-20T05:22:05;21.47;;;15.40;;
5965;SDS011;3009;43.224;27.976;2023-12-20T05:24:33;21.50;;;15.20;;
5965;SDS011;3009;43.224;27.976;2023-12-20T05:27:02;17.07;;;14.13;;
5965;SDS011;3009;43.224;27.976;2023-12-20T05:29:31;15.97;;;12.53;;
5965;SDS011;3009;43.224;27.976;2023-12-20T05:32:01;17.77;;;12.93;;
5965;SDS011;3009;43.224;27.976;2023-12-20T05:34:31;23.90;;;13.23;;
5965;SDS011;3009;43.224;27.976;2023-12-20T05:37:00;25.17;;;14.97;;
5965;SDS011;3009;43.224;27.976;2023-12-20T05:39:29;22.90;;;15.43;;
5965;SDS011;3009;43.224;27.976;2023-12-20T05:41:57;21.73;;;15.47;;
5965;SDS011;3009;43.224;27.976;2023-12-20T05:44:26;23.80;;;17.30;;
5965;SDS011;3009;43.224;27.976;2023-12-20T05:46:54;19.57;;;15.33;;
5965;SDS011;3009;43.224;27.976;2023-12-20T05:49:24;21.77;;;16.10;;
5965;SDS011;3009;43.224;27.976;2023-12-20T05:51:53;15.83;;;13.80;;
5965;SDS011;3009;43.224;27.976;2023-12-20T05:54:21;21.40;;;14.13;;
5965;SDS011;3009;43.224;27.976;2023-12-20T05:56:49;30.50;;;16.27;;
5965;SDS011;3009;43.224;27.976;2023-12-20T05:59:18;24.97;;;16.33;;
5965;SDS011;3009;43.224;27.976;2023-12-20T06:01:46;23.93;;;17.00;;
5965;SDS011;3009;43.224;27.976;2023-12-20T06:04:15;30.37;;;17.93;;
5965;SDS011;3009;43.224;27.976;2023-12-20T06:06:48;28.33;;;18.13;;
5965;SDS011;3009;43.224;27.976;2023-12-20T06:09:16;30.93;;;17.47;;
5965;SDS011;3009;43.224;27.976;2023-12-20T06:11:46;26.03;;;19.00;;
5965;SDS011;3009;43.224;27.976;2023-12-20T06:14:14;35.90;;;18.50;;
5965;SDS011;3009;43.224;27.976;2023-12-20T06:16:42;23.30;;;17.27;;
5965;SDS011;3009;43.224;27.976;2023-12-20T06:19:11;22.27;;;15.87;;
5965;SDS011;3009;43.224;27.976;2023-12-20T06:21:40;24.10;;;15.90;;
5965;SDS011;3009;43.224;27.976;2023-12-20T06:24:12;23.13;;;15.87;;
5965;SDS011;3009;43.224;27.976;2023-12-20T06:26:40;23.13;;;14.57;;
5965;SDS011;3009;43.224;27.976;2023-12-20T06:29:09;25.90;;;18.40;;
5965;SDS011;3009;43.224;27.976;2023-12-20T06:31:37;19.87;;;14.27;;
5965;SDS011;3009;43.224;27.976;2023-12-20T06:34:06;21.97;;;14.40;;
5965;SDS011;3009;43.224;27.976;2023-12-20T06:36:34;26.83;;;14.00;;
5965;SDS011;3009;43.224;27.976;2023-12-20T06:39:03;19.20;;;14.40;;
5965;SDS011;3009;43.224;27.976;2023-12-20T06:41:33;34.13;;;14.83;;
5965;SDS011;3009;43.224;27.976;2023-12-20T06:44:01;28.83;;;16.33;;
5965;SDS011;3009;43.224;27.976;2023-12-20T06:46:30;20.53;;;15.30;;
5965;SDS011;3009;43.224;27.976;2023-12-20T06:48:58;20.00;;;14.30;;
5965;SDS011;3009;43.224;27.976;2023-12-20T06:51:27;21.00;;;15.73;;
5965;SDS011;3009;43.224;27.976;2023-12-20T06:53:57;17.83;;;14.60;;
5965;SDS011;3009;43.224;27.976;2023-12-20T06:56:26;19.23;;;13.73;;
5965;SDS011;3009;43.224;27.976;2023-12-20T06:58:56;13.00;;;9.60;;
5965;SDS011;3009;43.224;27.976;2023-12-20T07:01:25;13.80;;;9.23;;
5965;SDS011;3009;43.224;27.976;2023-12-20T07:03:53;12.40;;;8.97;;
5965;SDS011;3009;43.224;27.976;2023-12-20T07:06:22;17.07;;;9.87;;
5965;SDS011;3009;43.224;27.976;2023-12-20T07:08:52;11.63;;;9.27;;
5965;SDS011;3009;43.224;27.976;2023-12-20T07:11:20;14.17;;;9.80;;
5965;SDS011;3009;43.224;27.976;2023-12-20T07:13:49;13.40;;;9.37;;
5965;SDS011;3009;43.224;27.976;2023-12-20T07:16:19;10.53;;;9.13;;
5965;SDS011;3009;43.224;27.976;2023-12-20T07:18:47;16.67;;;9.60;;
5965;SDS011;3009;43.224;27.976;2023-12-20T07:21:16;9.60;;;8.60;;
5965;SDS011;3009;43.224;27.976;2023-12-20T07:23:45;10.87;;;9.10;;
5965;SDS011;3009;43.224;27.976;2023-12-20T07:26:13;14.47;;;10.50;;
5965;SDS011;3009;43.224;27.976;2023-12-20T07:28:42;20.10;;;10.80;;
5965;SDS011;3009;43.224;27.976;2023-12-20T07:31:10;14.73;;;9.37;;
5965;SDS011;3009;43.224;27.976;2023-12-20T07:33:40;16.90;;;10.80;;
5965;SDS011;3009;43.224;27.976;2023-12-20T07:36:09;15.00;;;9.60;;
5965;SDS011;3009;43.224;27.976;2023-12-20T07:38:38;15.00;;;9.77;;
5965;SDS011;3009;43.224;27.976;2023-12-20T07:41:09;13.23;;;9.03;;
5965;SDS011;3009;43.224;27.976;2023-12-20T07:43:37;13.47;;;9.40;;
5965;SDS011;3009;43.224;27.976;2023-12-20T07:46:06;15.87;;;10.00;;
5965;SDS011;3009;43.224;27.976;2023-12-20T07:48:35;11.90;;;7.80;;
5965;SDS011;3009;43.224;27.976;2023-12-20T07:51:05;11.20;;;8.47;;
5965;SDS011;3009;43.224;27.976;2023-12-20T07:53:35;12.30;;;8.40;;
5965;SDS011;3009;43.224;27.976;2023-12-20T07:56:13;12.57;;;7.80;;
5965;SDS011;3009;43.224;27.976;2023-12-20T07:58:42;7.50;;;5.80;;
5965;SDS011;3009;43.224;27.976;2023-12-20T08:01:18;7.53;;;5.60;;
5965;SDS011;3009;43.224;27.976;2023-12-20T08:03:48;11.00;;;6.73;;
5965;SDS011;3009;43.224;27.976;2023-12-20T08:06:19;9.03;;;6.50;;
5965;SDS011;3009;43.224;27.976;2023-12-20T08:08:49;14.13;;;7.53;;
5965;SDS011;3009;43.224;27.976;2023-12-20T08:11:28;12.00;;;7.63;;
5965;SDS011;3009;43.224;27.976;2023-12-20T08:13:56;14.50;;;7.80;;
5965;SDS011;3009;43.224;27.976;2023-12-20T08:16:25;11.63;;;7.00;;
5965;SDS011;3009;43.224;27.976;2023-12-20T08:18:53;13.90;;;6.30;;
5965;SDS011;3009;43.224;27.976;2023-12-20T08:21:23;11.23;;;7.73;;
5965;SDS011;3009;43.224;27.976;2023-12-20T08:23:52;17.53;;;7.90;;
5965;SDS011;3009;43.224;27.976;2023-12-20T08:26:20;8.97;;;6.10;;
5965;SDS011;3009;43.224;27.976;2023-12-20T08:28:50;10.53;;;5.87;;
5965;SDS011;3009;43.224;27.976;2023-12-20T08:31:19;10.90;;;5.40;;
5965;SDS011;3009;43.224;27.976;2023-12-20T08:33:48;5.83;;;4.80;;
5965;SDS011;3009;43.224;27.976;2023-12-20T08:36:17;8.30;;;5.40;;
5965;SDS011;3009;43.224;27.976;2023-12-20T08:38:49;15.47;;;6.37;;
5965;SDS011;3009;43.224;27.976;2023-12-20T08:41:17;12.17;;;6.90;;
5965;SDS011;3009;43.224;27.976;2023-12-20T08:43:47;7.63;;;4.73;;
5965;SDS011;3009;43.224;27.976;2023-12-20T08:46:15;10.53;;;5.43;;
5965;SDS011;3009;43.224;27.976;2023-12-20T08:48:44;15.10;;;6.00;;
5965;SDS011;3009;43.224;27.976;2023-12-20T08:51:13;9.03;;;5.07;;
5965;SDS011;3009;43.224;27.976;2023-12-20T08:53:41;6.80;;;5.13;;
5965;SDS011;3009;43.224;27.976;2023-12-20T08:56:13;4.53;;;4.00;;
5965;SDS011;3009;43.224;27.976;2023-12-20T08:58:42;5.00;;;4.50;;
5965;SDS011;3009;43.224;27.976;2023-12-20T09:01:10;6.50;;;4.60;;
5965;SDS011;3009;43.224;27.976;2023-12-20T09:03:39;13.93;;;5.77;;
5965;SDS011;3009;43.224;27.976;2023-12-20T09:06:08;6.63;;;5.70;;
5965;SDS011;3009;43.224;27.976;2023-12-20T09:08:36;8.20;;;5.43;;
5965;SDS011;3009;43.224;27.976;2023-12-20T09:11:05;9.80;;;5.80;;
5965;SDS011;3009;43.224;27.976;2023-12-20T09:13:36;8.57;;;6.17;;
5965;SDS011;3009;43.224;27.976;2023-12-20T09:16:04;5.30;;;4.90;;
5965;SDS011;3009;43.224;27.976;2023-12-20T09:18:33;5.47;;;4.80;;
5965;SDS011;3009;43.224;27.976;2023-12-20T09:21:02;6.17;;;4.77;;
5965;SDS011;3009;43.224;27.976;2023-12-20T09:23:31;5.90;;;4.43;;
5965;SDS011;3009;43.224;27.976;2023-12-20T09:26:00;5.53;;;4.87;;
5965;SDS011;3009;43.224;27.976;2023-12-20T09:28:28;6.67;;;4.70;;
5965;SDS011;3009;43.224;27.976;2023-12-20T09:30:58;4.93;;;4.53;;
5965;SDS011;3009;43.224;27.976;2023-12-20T09:33:26;4.80;;;4.40;;
5965;SDS011;3009;43.224;27.976;2023-12-20T09:35:55;4.40;;;3.93;;
5965;SDS011;3009;43.224;27.976;2023-12-20T09:38:23;6.20;;;4.90;;
5965;SDS011;3009;43.224;27.976;2023-12-20T09:40:52;5.67;;;4.60;;
5965;SDS011;3009;43.224;27.976;2023-12-20T09:43:23;6.20;;;5.00;;
5965;SDS011;3009;43.224;27.976;2023-12-20T09:45:55;9.87;;;5.90;;
5965;SDS011;3009;43.224;27.976;2023-12-20T09:48:33;5.43;;;4.93;;
5965;SDS011;3009;43.224;27.976;2023-12-20T09:51:04;4.90;;;4.50;;
5965;SDS011;3009;43.224;27.976;2023-12-20T09:53:32;5.30;;;4.80;;
5965;SDS011;3009;43.224;27.976;2023-12-20T09:56:07;6.23;;;5.17;;
5965;SDS011;3009;43.224;27.976;2023-12-20T09:58:36;6.73;;;4.57;;
5965;SDS011;3009;43.224;27.976;2023-12-20T10:01:09;5.50;;;4.77;;
5965;SDS011;3009;43.224;27.976;2023-12-20T10:03:39;6.10;;;4.20;;
5965;SDS011;3009;43.224;27.976;2023-12-20T10:06:09;4.83;;;4.10;;
5965;SDS011;3009;43.224;27.976;2023-12-20T10:08:38;5.13;;;4.70;;
5965;SDS011;3009;43.224;27.976;2023-12-20T10:11:07;6.00;;;5.40;;
5965;SDS011;3009;43.224;27.976;2023-12-20T10:13:38;5.70;;;5.20;;
5965;SDS011;3009;43.224;27.976;2023-12-20T10:16:07;5.00;;;4.50;;
5965;SDS011;3009;43.224;27.976;2023-12-20T10:18:37;6.00;;;5.50;;
5965;SDS011;3009;43.224;27.976;2023-12-20T10:21:06;6.10;;;5.60;;
5965;SDS011;3009;43.224;27.976;2023-12-20T10:23:37;8.00;;;7.00;;
5965;SDS011;3009;43.224;27.976;2023-12-20T10:26:07;7.70;;;6.60;;
5965;SDS011;3009;43.224;27.976;2023-12-20T10:28:36;6.90;;;6.20;;
5965;SDS011;3009;43.224;27.976;2023-12-20T10:31:05;8.60;;;7.47;;
5965;SDS011;3009;43.224;27.976;2023-12-20T10:33:33;8.70;;;7.10;;
5965;SDS011;3009;43.224;27.976;2023-12-20T10:36:04;10.13;;;7.00;;
5965;SDS011;3009;43.224;27.976;2023-12-20T10:38:34;11.43;;;7.13;;
5965;SDS011;3009;43.224;27.976;2023-12-20T10:41:07;7.73;;;6.67;;
5965;SDS011;3009;43.224;27.976;2023-12-20T10:43:36;7.73;;;6.93;;
5965;SDS011;3009;43.224;27.976;2023-12-20T10:46:06;8.37;;;7.57;;
5965;SDS011;3009;43.224;27.976;2023-12-20T10:48:36;7.90;;;6.50;;
5965;SDS011;3009;43.224;27.976;2023-12-20T10:51:08;10.07;;;7.00;;
5965;SDS011;3009;43.224;27.976;2023-12-20T10:53:38;6.63;;;6.00;;
5965;SDS011;3009;43.224;27.976;2023-12-20T10:56:08;10.20;;;6.00;;
5965;SDS011;3009;43.224;27.976;2023-12-20T10:58:43;6.53;;;5.93;;
5965;SDS011;3009;43.224;27.976;2023-12-20T11:01:13;6.27;;;5.57;;
5965;SDS011;3009;43.224;27.976;2023-12-20T11:03:43;8.53;;;6.50;;
5965;SDS011;3009;43.224;27.976;2023-12-20T11:06:22;6.93;;;6.20;;
5965;SDS011;3009;43.224;27.976;2023-12-20T11:08:59;6.40;;;5.90;;
5965;SDS011;3009;43.224;27.976;2023-12-20T11:11:38;6.70;;;6.00;;
5965;SDS011;3009;43.224;27.976;2023-12-20T11:14:15;9.10;;;6.07;;
5965;SDS011;3009;43.224;27.976;2023-12-20T11:16:48;7.90;;;7.03;;
5965;SDS011;3009;43.224;27.976;2023-12-20T11:19:21;7.60;;;6.80;;
5965;SDS011;3009;43.224;27.976;2023-12-20T11:21:51;12.90;;;7.67;;
5965;SDS011;3009;43.224;27.976;2023-12-20T11:24:21;12.13;;;7.37;;
5965;SDS011;3009;43.224;27.976;2023-12-20T11:26:51;8.30;;;7.50;;
5965;SDS011;3009;43.224;27.976;2023-12-20T11:29:30;10.27;;;8.40;;
5965;SDS011;3009;43.224;27.976;2023-12-20T11:32:01;10.47;;;9.17;;
5965;SDS011;3009;43.224;27.976;2023-12-20T11:34:31;11.10;;;9.13;;
5965;SDS011;3009;43.224;27.976;2023-12-20T11:37:03;10.47;;;9.37;;
5965;SDS011;3009;43.224;27.976;2023-12-20T11:39:32;15.80;;;11.20;;
5965;SDS011;3009;43.224;27.976;2023-12-20T11:42:04;18.00;;;10.10;;
5965;SDS011;3009;43.224;27.976;2023-12-20T11:44:33;15.57;;;11.63;;
5965;SDS011;3009;43.224;27.976;2023-12-20T11:47:03;16.20;;;12.20;;
5965;SDS011;3009;43.224;27.976;2023-12-20T11:49:32;14.73;;;11.27;;
5965;SDS011;3009;43.224;27.976;2023-12-20T11:52:00;11.70;;;9.63;;
5965;SDS011;3009;43.224;27.976;2023-12-20T11:54:31;11.60;;;10.07;;
5965;SDS011;3009;43.224;27.976;2023-12-20T11:56:59;16.30;;;10.67;;
5965;SDS011;3009;43.224;27.976;2023-12-20T11:59:28;13.87;;;10.83;;
5965;SDS011;3009;43.224;27.976;2023-12-20T12:01:56;23.40;;;15.87;;
5965;SDS011;3009;43.224;27.976;2023-12-20T12:04:28;18.87;;;13.37;;
5965;SDS011;3009;43.224;27.976;2023-12-20T12:06:56;29.90;;;17.40;;
5965;SDS011;3009;43.224;27.976;2023-12-20T12:09:26;14.40;;;11.30;;
5965;SDS011;3009;43.224;27.976;2023-12-20T12:11:54;14.40;;;11.53;;
5965;SDS011;3009;43.224;27.976;2023-12-20T12:14:23;16.90;;;11.90;;
5965;SDS011;3009;43.224;27.976;2023-12-20T12:16:52;14.63;;;12.30;;
5965;SDS011;3009;43.224;27.976;2023-12-20T12:19:21;15.23;;;11.57;;
5965;SDS011;3009;43.224;27.976;2023-12-20T12:21:50;15.40;;;11.63;;
5965;SDS011;3009;43.224;27.976;2023-12-20T12:24:20;18.47;;;12.50;;
5965;SDS011;3009;43.224;27.976;2023-12-20T12:26:51;14.73;;;11.80;;
5965;SDS011;3009;43.224;27.976;2023-12-20T12:29:19;19.17;;;12.63;;
5965;SDS011;3009;43.224;27.976;2023-12-20T12:31:48;15.20;;;11.20;;
5965;SDS011;3009;43.224;27.976;2023-12-20T12:34:17;22.80;;;12.77;;
5965;SDS011;3009;43.224;27.976;2023-12-20T12:36:46;17.70;;;11.47;;
5965;SDS011;3009;43.224;27.976;2023-12-20T12:39:17;18.67;;;13.07;;
5965;SDS011;3009;43.224;27.976;2023-12-20T12:41:46;21.53;;;14.00;;
5965;SDS011;3009;43.224;27.976;2023-12-20T12:44:16;24.47;;;15.23;;
5965;SDS011;3009;43.224;27.976;2023-12-20T12:46:45;18.97;;;14.70;;
5965;SDS011;3009;43.224;27.976;2023-12-20T12:49:16;23.83;;;14.53;;
5965;SDS011;3009;43.224;27.976;2023-12-20T12:51:45;19.13;;;14.37;;
5965;SDS011;3009;43.224;27.976;2023-12-20T12:54:13;19.77;;;15.07;;
5965;SDS011;3009;43.224;27.976;2023-12-20T12:56:43;20.53;;;15.13;;
5965;SDS011;3009;43.224;27.976;2023-12-20T12:59:13;15.90;;;14.13;;
5965;SDS011;3009;43.224;27.976;2023-12-20T13:01:43;20.80;;;15.83;;
5965;SDS011;3009;43.224;27.976;2023-12-20T13:04:11;17.77;;;14.40;;
5965;SDS011;3009;43.224;27.976;2023-12-20T13:06:40;21.00;;;14.70;;
5965;SDS011;3009;43.224;27.976;2023-12-20T13:09:08;24.00;;;14.20;;
5965;SDS011;3009;43.224;27.976;2023-12-20T13:11:37;19.67;;;14.60;;
5965;SDS011;3009;43.224;27.976;2023-12-20T13:14:07;24.90;;;16.00;;
5965;SDS011;3009;43.224;27.976;2023-12-20T13:16:40;23.90;;;14.93;;
5965;SDS011;3009;43.224;27.976;2023-12-20T13:19:10;21.20;;;14.30;;
5965;SDS011;3009;43.224;27.976;2023-12-20T13:21:39;22.70;;;15.10;;
5965;SDS011;3009;43.224;27.976;2023-12-20T13:24:08;22.07;;;14.80;;
5965;SDS011;3009;43.224;27.976;2023-12-20T13:26:36;21.00;;;15.43;;
5965;SDS011;3009;43.224;27.976;2023-12-20T13:29:05;17.77;;;13.77;;
5965;SDS011;3009;43.224;27.976;2023-12-20T13:31:33;20.23;;;14.63;;
5965;SDS011;3009;43.224;27.976;2023-12-20T13:34:03;18.57;;;13.87;;
5965;SDS011;3009;43.224;27.976;2023-12-20T13:36:33;20.40;;;13.47;;
5965;SDS011;3009;43.224;27.976;2023-12-20T13:39:03;23.57;;;14.70;;
5965;SDS011;3009;43.224;27.976;2023-12-20T13:41:32;20.80;;;15.63;;
5965;SDS011;3009;43.224;27.976;2023-12-20T13:44:00;21.43;;;14.20;;
5965;SDS011;3009;43.224;27.976;2023-12-20T13:46:30;20.30;;;14.90;;
5965;SDS011;3009;43.224;27.976;2023-12-20T13:48:58;21.77;;;15.47;;
5965;SDS011;3009;43.224;27.976;2023-12-20T13:51:28;20.63;;;14.73;;
5965;SDS011;3009;43.224;27.976;2023-12-20T13:53:58;17.90;;;15.27;;
5965;SDS011;3009;43.224;27.976;2023-12-20T13:56:26;21.30;;;16.87;;
5965;SDS011;3009;43.224;27.976;2023-12-20T13:58:55;25.47;;;17.60;;
5965;SDS011;3009;43.224;27.976;2023-12-20T14:01:24;25.27;;;17.87;;
5965;SDS011;3009;43.224;27.976;2023-12-20T14:03:53;21.33;;;15.17;;
5965;SDS011;3009;43.224;27.976;2023-12-20T14:06:21;22.27;;;16.43;;
5965;SDS011;3009;43.224;27.976;2023-12-20T14:08:50;24.23;;;17.77;;
5965;SDS011;3009;43.224;27.976;2023-12-20T14:11:19;29.97;;;19.60;;
5965;SDS011;3009;43.224;27.976;2023-12-20T14:13:51;27.27;;;16.33;;
5965;SDS011;3009;43.224;27.976;2023-12-20T14:16:24;26.43;;;16.13;;
5965;SDS011;3009;43.224;27.976;2023-12-20T14:18:52;26.87;;;17.57;;
5965;SDS011;3009;43.224;27.976;2023-12-20T14:21:24;25.07;;;15.43;;
5965;SDS011;3009;43.224;27.976;2023-12-20T14:23:52;23.17;;;16.23;;
5965;SDS011;3009;43.224;27.976;2023-12-20T14:26:22;28.07;;;17.00;;
5965;SDS011;3009;43.224;27.976;2023-12-20T14:28:51;24.00;;;16.83;;
5965;SDS011;3009;43.224;27.976;2023-12-20T14:31:20;20.40;;;16.73;;
5965;SDS011;3009;43.224;27.976;2023-12-20T14:33:50;21.20;;;16.23;;
5965;SDS011;3009;43.224;27.976;2023-12-20T14:36:20;19.57;;;16.73;;
5965;SDS011;3009;43.224;27.976;2023-12-20T14:38:49;28.80;;;16.47;;
5965;SDS011;3009;43.224;27.976;2023-12-20T14:41:18;28.43;;;16.80;;
5965;SDS011;3009;43.224;27.976;2023-12-20T14:43:48;25.27;;;17.30;;
5965;SDS011;3009;43.224;27.976;2023-12-20T14:46:16;24.70;;;16.80;;
5965;SDS011;3009;43.224;27.976;2023-12-20T14:48:45;23.60;;;17.00;;
5965;SDS011;3009;43.224;27.976;2023-12-20T14:51:14;19.93;;;15.83;;
5965;SDS011;3009;43.224;27.976;2023-12-20T14:53:43;31.67;;;18.83;;
5965;SDS011;3009;43.224;27.976;2023-12-20T14:56:14;33.50;;;21.20;;
5965;SDS011;3009;43.224;27.976;2023-12-20T14:58:42;33.53;;;22.40;;